createdAt,value
2018-04-26T00:00:11.315Z,1.80
2018-04-26T00:01:11.306Z,1.90
2018-04-26T00:02:11.300Z,1.60
2018-04-26T00:03:11.298Z,1.80
2018-04-26T00:04:11.288Z,2.10
2018-04-26T00:05:11.278Z,1.80
2018-04-26T00:06:11.271Z,1.60
2018-04-26T00:07:11.264Z,1.90
2018-04-26T00:08:11.261Z,1.70
2018-04-26T00:09:11.251Z,2.00
2018-04-26T00:10:11.244Z,1.90
2018-04-26T00:11:11.235Z,1.60
2018-04-26T00:12:11.228Z,1.80
2018-04-26T00:13:11.220Z,1.80
2018-04-26T00:14:11.214Z,1.80
2018-04-26T00:15:11.204Z,1.70
2018-04-26T00:16:11.200Z,1.70
2018-04-26T00:17:11.189Z,1.50
2018-04-26T00:18:11.189Z,1.90
2018-04-26T00:19:11.176Z,1.60
2018-04-26T00:20:11.170Z,1.80
2018-04-26T00:21:11.163Z,1.90
2018-04-26T00:22:11.156Z,1.90
2018-04-26T00:23:11.148Z,2.20
2018-04-26T00:24:11.140Z,2.00
2018-04-26T00:25:11.132Z,2.00
2018-04-26T00:26:11.129Z,1.70
2018-04-26T00:27:11.118Z,1.60
2018-04-26T00:28:11.115Z,2.00
2018-04-26T00:29:11.104Z,1.80
2018-04-26T00:30:11.098Z,1.90
2018-04-26T00:31:11.090Z,1.70
2018-04-26T00:32:11.081Z,1.70
2018-04-26T00:33:11.075Z,1.80
2018-04-26T00:34:11.065Z,1.70
2018-04-26T00:35:11.059Z,1.60
2018-04-26T00:36:11.055Z,1.50
2018-04-26T00:37:11.048Z,1.90
2018-04-26T00:38:11.038Z,1.90
2018-04-26T00:39:11.028Z,2.20
2018-04-26T00:40:11.024Z,1.90
2018-04-26T00:41:11.043Z,1.70
2018-04-26T00:42:11.010Z,2.10
2018-04-26T00:43:11.000Z,1.60
2018-04-26T00:44:10.993Z,1.70
2018-04-26T00:45:10.985Z,1.80
2018-04-26T00:46:10.979Z,1.70
2018-04-26T00:47:10.971Z,1.60
2018-04-26T00:48:10.966Z,1.80
2018-04-26T00:49:10.957Z,1.70
2018-04-26T00:50:10.949Z,1.40
2018-04-26T00:51:10.944Z,1.90
2018-04-26T00:52:10.933Z,1.90
2018-04-26T00:53:10.932Z,1.70
2018-04-26T00:54:10.922Z,1.50
2018-04-26T00:55:10.914Z,1.80
2018-04-26T00:56:10.906Z,1.70
2018-04-26T00:57:10.901Z,1.60
2018-04-26T00:58:10.893Z,1.60
2018-04-26T00:59:10.943Z,1.40
2018-04-26T01:00:10.885Z,1.60
2018-04-26T01:01:10.871Z,1.80
2018-04-26T01:02:10.864Z,1.80
2018-04-26T01:03:10.859Z,1.80
2018-04-26T01:04:10.851Z,1.50
2018-04-26T01:05:10.843Z,1.50
2018-04-26T01:06:10.835Z,1.80
2018-04-26T01:07:10.827Z,1.90
2018-04-26T01:08:10.821Z,1.80
2018-04-26T01:09:10.814Z,1.50
2018-04-26T01:10:10.807Z,1.60
2018-04-26T01:11:10.798Z,2.00
2018-04-26T01:12:10.792Z,1.60
2018-04-26T01:13:10.787Z,1.50
2018-04-26T01:14:10.781Z,1.60
2018-04-26T01:15:10.770Z,1.60
2018-04-26T01:16:10.764Z,1.80
2018-04-26T01:17:10.755Z,1.40
2018-04-26T01:18:10.749Z,1.60
2018-04-26T01:19:10.742Z,1.50
2018-04-26T01:20:10.829Z,1.70
2018-04-26T01:21:10.725Z,1.80
2018-04-26T01:22:10.720Z,1.70
2018-04-26T01:23:10.716Z,1.60
2018-04-26T01:24:10.704Z,1.90
2018-04-26T01:25:10.705Z,1.50
2018-04-26T01:26:10.691Z,1.50
2018-04-26T01:27:10.684Z,1.50
2018-04-26T01:28:10.679Z,1.50
2018-04-26T01:29:10.671Z,1.70
2018-04-26T01:30:10.662Z,1.80
2018-04-26T01:31:10.658Z,1.40
2018-04-26T01:32:10.648Z,1.80
2018-04-26T01:33:10.643Z,1.60
2018-04-26T01:34:10.634Z,2.00
2018-04-26T01:35:10.635Z,1.70
2018-04-26T01:36:10.620Z,1.70
2018-04-26T01:37:10.613Z,1.70
2018-04-26T01:38:10.606Z,1.70
2018-04-26T01:39:10.599Z,1.90
2018-04-26T01:40:10.591Z,1.70
2018-04-26T01:41:10.585Z,1.70
2018-04-26T01:42:10.579Z,1.80
2018-04-26T01:43:10.574Z,1.70
2018-04-26T01:44:10.562Z,1.80
2018-04-26T01:45:10.556Z,1.80
2018-04-26T01:46:10.550Z,1.30
2018-04-26T01:47:10.543Z,1.60
2018-04-26T01:48:10.536Z,1.70
2018-04-26T01:49:10.528Z,1.50
2018-04-26T01:50:10.523Z,1.70
2018-04-26T01:51:10.516Z,1.60
2018-04-26T01:52:10.507Z,1.70
2018-04-26T01:53:10.501Z,1.70
2018-04-26T01:54:10.493Z,1.50
2018-04-26T01:55:10.489Z,1.70
2018-04-26T01:56:10.481Z,1.60
2018-04-26T01:57:10.473Z,1.50
2018-04-26T01:58:10.465Z,1.70
2018-04-26T01:59:10.458Z,1.50
2018-04-26T02:00:10.452Z,1.40
2018-04-26T02:01:10.444Z,1.60
2018-04-26T02:02:10.444Z,1.40
2018-04-26T02:03:10.431Z,1.40
2018-04-26T02:04:10.423Z,1.50
2018-04-26T02:05:10.416Z,1.50
2018-04-26T02:06:10.412Z,1.30
2018-04-26T02:07:10.404Z,1.40
2018-04-26T02:08:10.400Z,1.10
2018-04-26T02:09:10.389Z,1.40
2018-04-26T02:10:10.385Z,1.40
2018-04-26T02:11:10.378Z,1.30
2018-04-26T02:12:10.372Z,1.30
2018-04-26T02:13:10.364Z,1.30
2018-04-26T02:14:10.384Z,1.30
2018-04-26T02:15:10.350Z,1.40
2018-04-26T02:16:10.341Z,1.30
2018-04-26T02:17:10.332Z,1.30
2018-04-26T02:18:10.327Z,1.30
2018-04-26T02:19:10.318Z,1.30
2018-04-26T02:20:10.313Z,1.00
2018-04-26T02:21:10.305Z,1.00
2018-04-26T02:22:10.296Z,1.30
2018-04-26T02:23:10.291Z,1.10
2018-04-26T02:24:10.288Z,1.00
2018-04-26T02:25:10.277Z,1.20
2018-04-26T02:26:10.273Z,1.10
2018-04-26T02:27:10.262Z,1.10
2018-04-26T02:28:10.255Z,1.20
2018-04-26T02:29:10.249Z,1.20
2018-04-26T02:30:10.241Z,0.90
2018-04-26T02:31:10.234Z,1.00
2018-04-26T02:32:10.225Z,0.90
2018-04-26T02:33:10.217Z,1.00
2018-04-26T02:34:10.210Z,1.10
2018-04-26T02:35:10.203Z,1.10
2018-04-26T02:36:10.195Z,1.20
2018-04-26T02:37:10.186Z,1.20
2018-04-26T02:38:10.179Z,1.00
2018-04-26T02:39:10.185Z,1.10
2018-04-26T02:40:10.168Z,1.00
2018-04-26T02:41:10.157Z,1.00
2018-04-26T02:42:10.148Z,1.30
2018-04-26T02:43:10.143Z,1.50
2018-04-26T02:44:10.134Z,1.30
2018-04-26T02:45:10.124Z,1.20
2018-04-26T02:46:10.120Z,1.10
2018-04-26T02:47:10.117Z,1.30
2018-04-26T02:48:10.105Z,1.10
2018-04-26T02:49:10.094Z,1.20
2018-04-26T02:50:10.091Z,1.30
2018-04-26T02:51:10.083Z,1.10
2018-04-26T02:52:10.073Z,1.30
2018-04-26T02:53:10.065Z,1.00
2018-04-26T02:54:10.057Z,1.20
2018-04-26T02:55:10.049Z,1.30
2018-04-26T02:56:10.041Z,1.20
2018-04-26T02:57:10.036Z,1.10
2018-04-26T02:58:10.030Z,1.20
2018-04-26T02:59:10.018Z,1.30
2018-04-26T03:00:10.012Z,1.30
2018-04-26T03:01:10.003Z,1.20
2018-04-26T03:02:09.996Z,1.00
2018-04-26T03:03:09.987Z,1.10
2018-04-26T03:04:09.980Z,1.40
2018-04-26T03:05:09.974Z,1.40
2018-04-26T03:06:09.965Z,1.40
2018-04-26T03:07:09.963Z,1.40
2018-04-26T03:08:10.039Z,1.30
2018-04-26T03:09:09.941Z,1.80
2018-04-26T03:10:09.934Z,1.20
2018-04-26T03:11:09.933Z,1.30
2018-04-26T03:12:09.920Z,1.30
2018-04-26T03:13:09.910Z,1.40
2018-04-26T03:14:09.906Z,1.20
2018-04-26T03:15:09.899Z,1.30
2018-04-26T03:16:09.887Z,1.20
2018-04-26T03:17:09.877Z,1.20
2018-04-26T03:18:09.874Z,1.30
2018-04-26T03:19:09.868Z,1.40
2018-04-26T03:20:09.854Z,1.40
2018-04-26T03:21:09.849Z,1.30
2018-04-26T03:22:09.841Z,1.50
2018-04-26T03:23:09.834Z,1.10
2018-04-26T03:24:09.827Z,1.40
2018-04-26T03:25:09.819Z,1.90
2018-04-26T03:26:09.809Z,1.50
2018-04-26T03:27:09.801Z,1.70
2018-04-26T03:28:09.794Z,1.50
2018-04-26T03:29:09.785Z,1.60
2018-04-26T03:30:09.782Z,1.50
2018-04-26T03:31:09.885Z,1.60
2018-04-26T03:32:09.762Z,1.90
2018-04-26T03:33:09.754Z,1.70
2018-04-26T03:34:09.746Z,1.90
2018-04-26T03:35:09.738Z,1.80
2018-04-26T03:36:09.730Z,2.00
2018-04-26T03:37:09.725Z,1.80
2018-04-26T03:38:09.716Z,1.60
2018-04-26T03:39:09.705Z,1.70
2018-04-26T03:40:09.697Z,1.80
2018-04-26T03:41:09.689Z,1.80
2018-04-26T03:42:09.681Z,1.60
2018-04-26T03:43:09.675Z,1.70
2018-04-26T03:44:09.663Z,1.90
2018-04-26T03:45:09.655Z,1.80
2018-04-26T03:46:09.649Z,1.70
2018-04-26T03:47:09.642Z,2.50
2018-04-26T03:48:09.631Z,2.10
2018-04-26T03:49:09.626Z,2.40
2018-04-26T03:50:09.615Z,2.00
2018-04-26T03:51:09.612Z,1.70
2018-04-26T03:52:09.599Z,1.80
2018-04-26T03:53:09.589Z,2.00
2018-04-26T03:54:09.583Z,2.40
2018-04-26T03:55:09.574Z,2.30
2018-04-26T03:56:09.566Z,2.70
2018-04-26T03:57:09.558Z,2.50
2018-04-26T03:58:09.554Z,2.10
2018-04-26T03:59:09.544Z,2.40
2018-04-26T04:00:09.534Z,2.40
2018-04-26T04:01:09.525Z,2.50
2018-04-26T04:02:09.517Z,2.20
2018-04-26T04:03:09.506Z,2.60
2018-04-26T04:04:09.498Z,2.40
2018-04-26T04:05:09.491Z,2.40
2018-04-26T04:06:09.483Z,2.40
2018-04-26T04:07:09.475Z,2.30
2018-04-26T04:08:09.467Z,2.30
2018-04-26T04:09:09.456Z,2.30
2018-04-26T04:10:09.450Z,1.90
2018-04-26T04:11:09.440Z,2.30
2018-04-26T04:12:09.432Z,2.50
2018-04-26T04:13:09.422Z,2.50
2018-04-26T04:14:09.413Z,2.40
2018-04-26T04:15:09.405Z,2.70
2018-04-26T04:16:09.399Z,2.30
2018-04-26T04:17:09.386Z,2.00
2018-04-26T04:18:09.381Z,2.10
2018-04-26T04:19:09.370Z,2.60
2018-04-26T04:20:09.361Z,2.50
2018-04-26T04:21:09.353Z,2.90
2018-04-26T04:22:09.346Z,2.50
2018-04-26T04:23:09.335Z,2.30
2018-04-26T04:24:09.325Z,2.40
2018-04-26T04:25:09.318Z,2.10
2018-04-26T04:26:09.306Z,2.50
2018-04-26T04:27:09.301Z,2.40
2018-04-26T04:28:09.293Z,2.50
2018-04-26T04:29:09.287Z,2.20
2018-04-26T04:30:09.275Z,2.50
2018-04-26T04:31:09.266Z,2.10
2018-04-26T04:32:09.256Z,2.30
2018-04-26T04:33:09.251Z,2.30
2018-04-26T04:34:09.246Z,2.70
2018-04-26T04:35:09.232Z,2.30
2018-04-26T04:36:09.225Z,2.00
2018-04-26T04:37:09.215Z,2.30
2018-04-26T04:38:09.205Z,2.10
2018-04-26T04:39:09.202Z,2.40
2018-04-26T04:40:09.189Z,2.20
2018-04-26T04:41:09.180Z,2.20
2018-04-26T04:42:09.176Z,2.20
2018-04-26T04:43:09.162Z,2.20
2018-04-26T04:44:09.168Z,2.10
2018-04-26T04:45:09.260Z,1.80
2018-04-26T04:46:09.139Z,1.90
2018-04-26T04:47:09.129Z,2.50
2018-04-26T04:48:09.119Z,2.30
2018-04-26T04:49:09.114Z,2.60
2018-04-26T04:50:09.103Z,2.20
2018-04-26T04:51:09.171Z,2.20
2018-04-26T04:52:09.087Z,2.20
2018-04-26T04:53:09.076Z,2.30
2018-04-26T04:54:09.067Z,2.20
2018-04-26T04:55:09.059Z,2.10
2018-04-26T04:56:09.050Z,2.30
2018-04-26T04:57:09.041Z,1.90
2018-04-26T04:58:09.033Z,2.20
2018-04-26T04:59:09.027Z,2.70
2018-04-26T05:00:09.019Z,2.30
2018-04-26T05:01:09.005Z,2.40
2018-04-26T05:02:09.076Z,2.50
2018-04-26T05:03:08.996Z,2.70
2018-04-26T05:04:08.980Z,2.90
2018-04-26T05:05:08.970Z,2.20
2018-04-26T05:06:08.962Z,2.10
2018-04-26T05:07:08.953Z,2.30
2018-04-26T05:08:08.947Z,2.70
2018-04-26T05:09:08.934Z,2.10
2018-04-26T05:10:08.928Z,2.70
2018-04-26T05:11:08.920Z,2.80
2018-04-26T05:12:08.914Z,2.70
2018-04-26T05:13:08.901Z,2.80
2018-04-26T05:14:08.891Z,2.70
2018-04-26T05:15:08.884Z,3.00
2018-04-26T05:16:08.876Z,2.90
2018-04-26T05:17:08.868Z,3.10
2018-04-26T05:18:08.855Z,3.10
2018-04-26T05:19:08.849Z,3.50
2018-04-26T05:20:08.839Z,3.50
2018-04-26T05:21:08.830Z,3.90
2018-04-26T05:22:08.819Z,3.70
2018-04-26T05:23:08.812Z,3.10
2018-04-26T05:24:08.801Z,3.70
2018-04-26T05:25:08.794Z,3.00
2018-04-26T05:26:08.782Z,2.50
2018-04-26T05:27:08.774Z,3.00
2018-04-26T05:28:08.765Z,2.90
2018-04-26T05:29:08.756Z,2.70
2018-04-26T05:30:08.813Z,2.40
2018-04-26T05:31:08.738Z,2.50
2018-04-26T05:32:08.728Z,2.40
2018-04-26T05:33:08.721Z,2.10
2018-04-26T05:34:08.712Z,2.40
2018-04-26T05:35:08.705Z,2.70
2018-04-26T05:36:08.697Z,2.30
2018-04-26T05:37:08.689Z,2.30
2018-04-26T05:38:08.675Z,2.40
2018-04-26T05:39:08.669Z,2.60
2018-04-26T05:40:08.663Z,2.40
2018-04-26T05:41:08.653Z,2.50
2018-04-26T05:42:08.646Z,2.20
2018-04-26T05:43:08.636Z,2.30
2018-04-26T05:44:08.624Z,2.40
2018-04-26T05:45:08.621Z,2.50
2018-04-26T05:46:08.607Z,3.00
2018-04-26T05:47:08.600Z,2.70
2018-04-26T05:48:08.593Z,2.30
2018-04-26T05:49:08.581Z,2.60
2018-04-26T05:50:08.572Z,3.00
2018-04-26T05:51:08.565Z,2.50
2018-04-26T05:52:08.558Z,2.20
2018-04-26T05:53:08.547Z,2.60
2018-04-26T05:54:08.543Z,2.60
2018-04-26T05:55:08.536Z,2.30
2018-04-26T05:56:08.527Z,2.40
2018-04-26T05:57:08.513Z,2.90
2018-04-26T05:58:08.505Z,2.40
2018-04-26T05:59:08.498Z,2.40
2018-04-26T06:00:08.489Z,2.10
2018-04-26T06:01:08.479Z,2.50
2018-04-26T06:02:08.472Z,2.20
2018-04-26T06:03:08.466Z,2.30
2018-04-26T06:04:08.456Z,2.30
2018-04-26T06:05:08.448Z,2.60
2018-04-26T06:06:08.441Z,2.50
2018-04-26T06:07:08.429Z,2.50
2018-04-26T06:08:08.429Z,2.40
2018-04-26T06:09:08.412Z,2.20
2018-04-26T06:10:08.405Z,2.20
2018-04-26T06:11:08.394Z,2.50
2018-04-26T06:12:08.389Z,2.70
2018-04-26T06:13:08.381Z,2.30
2018-04-26T06:14:08.372Z,2.30
2018-04-26T06:15:08.365Z,2.40
2018-04-26T06:16:08.355Z,2.50
2018-04-26T06:17:08.371Z,2.50
2018-04-26T06:18:08.338Z,2.10
2018-04-26T06:19:08.330Z,2.30
2018-04-26T06:20:08.322Z,2.00
2018-04-26T06:21:08.317Z,2.20
2018-04-26T06:22:08.313Z,2.30
2018-04-26T06:23:08.309Z,2.00
2018-04-26T06:24:08.293Z,2.00
2018-04-26T06:25:08.325Z,2.40
2018-04-26T06:26:08.275Z,2.60
2018-04-26T06:27:08.268Z,2.40
2018-04-26T06:28:08.257Z,2.20
2018-04-26T06:29:08.252Z,2.40
2018-04-26T06:30:08.245Z,1.90
2018-04-26T06:31:08.260Z,2.60
2018-04-26T06:32:08.228Z,2.20
2018-04-26T06:33:08.222Z,2.20
2018-04-26T06:34:08.211Z,2.20
2018-04-26T06:35:08.203Z,2.40
2018-04-26T06:36:08.195Z,2.40
2018-04-26T06:37:08.187Z,2.10
2018-04-26T06:38:08.179Z,2.30
2018-04-26T06:39:08.174Z,2.20
2018-04-26T06:40:08.164Z,2.50
2018-04-26T06:41:08.155Z,2.20
2018-04-26T06:42:08.149Z,2.00
2018-04-26T06:43:08.142Z,2.30
2018-04-26T06:44:08.132Z,2.40
2018-04-26T06:45:08.124Z,2.20
2018-04-26T06:46:08.120Z,2.20
2018-04-26T06:47:08.111Z,2.60
2018-04-26T06:48:08.102Z,2.30
2018-04-26T06:49:08.093Z,2.20
2018-04-26T06:50:08.090Z,2.10
2018-04-26T06:51:08.081Z,2.20
2018-04-26T06:52:08.072Z,2.10
2018-04-26T06:53:08.065Z,2.10
2018-04-26T06:54:08.058Z,2.20
2018-04-26T06:55:08.058Z,2.20
2018-04-26T06:56:08.045Z,2.10
2018-04-26T06:57:08.043Z,2.50
2018-04-26T06:58:08.030Z,2.10
2018-04-26T06:59:08.021Z,2.20
2018-04-26T07:00:08.010Z,2.30
2018-04-26T07:01:08.004Z,1.90
2018-04-26T07:02:07.998Z,2.50
2018-04-26T07:03:07.990Z,2.00
2018-04-26T07:04:07.983Z,2.40
2018-04-26T07:05:07.976Z,2.30
2018-04-26T07:06:07.967Z,2.30
2018-04-26T07:07:07.963Z,2.30
2018-04-26T07:08:07.952Z,2.40
2018-04-26T07:09:07.947Z,2.00
2018-04-26T07:10:07.939Z,2.00
2018-04-26T07:11:07.932Z,2.20
2018-04-26T07:12:07.989Z,2.40
2018-04-26T07:13:07.915Z,2.10
2018-04-26T07:14:07.908Z,2.30
2018-04-26T07:15:07.903Z,1.80
2018-04-26T07:16:07.892Z,2.50
2018-04-26T07:17:07.883Z,2.40
2018-04-26T07:18:07.882Z,2.10
2018-04-26T07:19:07.877Z,2.10
2018-04-26T07:20:07.863Z,2.20
2018-04-26T07:21:07.858Z,2.30
2018-04-26T07:22:07.848Z,1.90
2018-04-26T07:23:07.844Z,2.30
2018-04-26T07:24:07.832Z,2.40
2018-04-26T07:25:07.831Z,2.20
2018-04-26T07:26:07.823Z,2.10
2018-04-26T07:27:07.812Z,1.80
2018-04-26T07:28:07.802Z,1.90
2018-04-26T07:29:07.799Z,2.10
2018-04-26T07:30:07.791Z,2.20
2018-04-26T07:31:07.787Z,1.90
2018-04-26T07:32:07.828Z,2.10
2018-04-26T07:33:07.768Z,2.10
2018-04-26T07:34:07.763Z,2.00
2018-04-26T07:35:07.763Z,2.00
2018-04-26T07:36:07.749Z,2.00
2018-04-26T07:37:07.744Z,2.10
2018-04-26T07:38:07.737Z,2.30
2018-04-26T07:39:07.730Z,2.20
2018-04-26T07:40:07.723Z,2.30
2018-04-26T07:41:07.714Z,2.20
2018-04-26T07:42:07.705Z,1.90
2018-04-26T07:43:07.700Z,2.30
2018-04-26T07:44:07.692Z,2.40
2018-04-26T07:45:07.685Z,2.20
2018-04-26T07:46:07.681Z,2.20
2018-04-26T07:47:07.674Z,2.10
2018-04-26T07:48:07.663Z,2.00
2018-04-26T07:49:07.661Z,1.90
2018-04-26T07:50:07.658Z,2.00
2018-04-26T07:51:07.644Z,1.80
2018-04-26T07:52:07.639Z,2.30
2018-04-26T07:53:07.665Z,1.80
2018-04-26T07:54:07.622Z,1.80
2018-04-26T07:55:07.622Z,1.80
2018-04-26T07:56:07.608Z,2.00
2018-04-26T07:57:07.602Z,2.10
2018-04-26T07:58:07.597Z,2.40
2018-04-26T07:59:07.593Z,1.70
2018-04-26T08:00:07.580Z,2.00
2018-04-26T08:01:07.575Z,2.10
2018-04-26T08:02:07.568Z,2.20
2018-04-26T08:03:07.563Z,2.00
2018-04-26T08:04:07.564Z,1.70
2018-04-26T08:05:07.547Z,1.90
2018-04-26T08:06:07.540Z,1.80
2018-04-26T08:07:07.534Z,2.10
2018-04-26T08:08:07.527Z,2.40
2018-04-26T08:09:07.521Z,2.50
2018-04-26T08:10:07.514Z,2.50
2018-04-26T08:11:07.504Z,1.90
2018-04-26T08:12:07.497Z,1.80
2018-04-26T08:13:07.490Z,1.80
2018-04-26T08:14:07.484Z,2.00
2018-04-26T08:15:07.480Z,2.50
2018-04-26T08:16:07.673Z,2.20
2018-04-26T08:17:07.459Z,2.50
2018-04-26T08:18:07.453Z,1.90
2018-04-26T08:19:07.446Z,2.50
2018-04-26T08:20:07.439Z,2.50
2018-04-26T08:21:07.429Z,2.10
2018-04-26T08:22:07.423Z,2.20
2018-04-26T08:23:07.414Z,2.10
2018-04-26T08:24:07.409Z,2.10
2018-04-26T08:25:07.477Z,2.30
2018-04-26T08:26:07.391Z,2.40
2018-04-26T08:27:07.385Z,2.80
2018-04-26T08:28:07.375Z,1.90
2018-04-26T08:29:07.374Z,2.00
2018-04-26T08:30:07.362Z,2.60
2018-04-26T08:31:07.356Z,2.60
2018-04-26T08:32:07.345Z,2.30
2018-04-26T08:33:07.338Z,2.50
2018-04-26T08:34:07.328Z,2.20
2018-04-26T08:35:07.324Z,2.20
2018-04-26T08:36:07.315Z,2.00
2018-04-26T08:37:07.308Z,2.30
2018-04-26T08:38:07.300Z,2.30
2018-04-26T08:39:07.296Z,2.50
2018-04-26T08:40:07.289Z,2.70
2018-04-26T08:41:07.276Z,2.50
2018-04-26T08:42:07.271Z,2.30
2018-04-26T08:43:07.263Z,2.20
2018-04-26T08:44:07.265Z,2.20
2018-04-26T08:45:07.246Z,2.50
2018-04-26T08:46:07.239Z,2.60
2018-04-26T08:47:07.233Z,2.40
2018-04-26T08:48:07.225Z,2.30
2018-04-26T08:49:07.221Z,2.20
2018-04-26T08:50:07.210Z,2.50
2018-04-26T08:51:07.202Z,2.30
2018-04-26T08:52:07.198Z,2.60
2018-04-26T08:53:07.188Z,2.20
2018-04-26T08:54:07.181Z,2.20
2018-04-26T08:55:07.177Z,2.60
2018-04-26T08:56:07.168Z,2.20
2018-04-26T08:57:07.159Z,2.30
2018-04-26T08:58:07.154Z,2.50
2018-04-26T08:59:07.149Z,2.50
2018-04-26T09:00:07.137Z,2.30
2018-04-26T09:01:07.130Z,2.90
2018-04-26T09:02:07.123Z,2.30
2018-04-26T09:03:07.117Z,2.20
2018-04-26T09:04:07.109Z,1.90
2018-04-26T09:05:07.103Z,2.60
2018-04-26T09:06:07.094Z,2.40
2018-04-26T09:07:07.091Z,2.20
2018-04-26T09:08:07.080Z,2.60
2018-04-26T09:09:07.078Z,2.40
2018-04-26T09:10:07.065Z,2.70
2018-04-26T09:11:07.059Z,2.60
2018-04-26T09:12:07.053Z,2.10
2018-04-26T09:13:07.045Z,2.10
2018-04-26T09:14:07.046Z,2.30
2018-04-26T09:15:07.032Z,2.40
2018-04-26T09:16:07.023Z,2.40
2018-04-26T09:17:07.016Z,2.80
2018-04-26T09:18:07.014Z,2.60
2018-04-26T09:19:07.006Z,2.50
2018-04-26T09:20:06.997Z,2.60
2018-04-26T09:21:06.993Z,2.30
2018-04-26T09:22:06.984Z,2.30
2018-04-26T09:23:06.976Z,2.20
2018-04-26T09:24:06.971Z,2.70
2018-04-26T09:25:06.965Z,2.30
2018-04-26T09:26:06.960Z,2.40
2018-04-26T09:27:06.951Z,2.70
2018-04-26T09:28:06.946Z,2.40
2018-04-26T09:29:06.937Z,2.50
2018-04-26T09:30:07.020Z,2.70
2018-04-26T09:31:06.924Z,2.50
2018-04-26T09:32:06.920Z,2.30
2018-04-26T09:33:06.909Z,2.60
2018-04-26T09:34:06.905Z,2.10
2018-04-26T09:35:06.897Z,2.10
2018-04-26T09:36:06.892Z,2.70
2018-04-26T09:37:06.885Z,2.10
2018-04-26T09:38:06.881Z,2.20
2018-04-26T09:39:06.872Z,2.70
2018-04-26T09:40:06.872Z,3.10
2018-04-26T09:41:06.859Z,2.80
2018-04-26T09:42:06.851Z,2.30
2018-04-26T09:43:06.845Z,2.00
2018-04-26T09:44:06.838Z,2.20
2018-04-26T09:45:06.830Z,2.30
2018-04-26T09:46:06.824Z,2.30
2018-04-26T09:47:06.816Z,2.40
2018-04-26T09:48:06.809Z,2.40
2018-04-26T09:49:06.804Z,2.50
2018-04-26T09:50:06.797Z,2.40
2018-04-26T09:51:06.790Z,2.50
2018-04-26T09:52:06.783Z,2.50
2018-04-26T09:53:06.778Z,2.40
2018-04-26T09:54:06.769Z,1.90
2018-04-26T09:55:06.764Z,2.60
2018-04-26T09:56:06.759Z,2.50
2018-04-26T09:57:06.751Z,2.50
2018-04-26T09:58:06.747Z,2.90
2018-04-26T09:59:06.737Z,2.40
2018-04-26T10:00:06.732Z,2.30
2018-04-26T10:01:06.725Z,2.50
2018-04-26T10:02:06.716Z,2.50
2018-04-26T10:03:06.708Z,2.40
2018-04-26T10:04:06.701Z,2.50
2018-04-26T10:05:06.694Z,2.60
2018-04-26T10:06:06.694Z,2.50
2018-04-26T10:07:06.679Z,3.30
2018-04-26T10:08:06.674Z,2.30
2018-04-26T10:09:06.666Z,2.10
2018-04-26T10:10:06.661Z,3.00
2018-04-26T10:11:06.650Z,2.80
2018-04-26T10:12:06.645Z,2.30
2018-04-26T10:13:06.638Z,2.60
2018-04-26T10:14:06.629Z,2.70
2018-04-26T10:15:06.657Z,2.90
2018-04-26T10:16:06.613Z,2.20
2018-04-26T10:17:06.607Z,2.40
2018-04-26T10:18:06.602Z,2.90
2018-04-26T10:19:06.592Z,2.80
2018-04-26T10:20:06.584Z,2.60
2018-04-26T10:21:06.632Z,2.30
2018-04-26T10:22:06.574Z,2.40
2018-04-26T10:23:06.564Z,2.50
2018-04-26T10:24:06.559Z,2.40
2018-04-26T10:25:06.550Z,2.70
2018-04-26T10:26:06.543Z,2.20
2018-04-26T10:27:06.538Z,2.40
2018-04-26T10:28:06.528Z,2.40
2018-04-26T10:29:06.523Z,2.40
2018-04-26T10:30:06.526Z,2.60
2018-04-26T10:31:06.507Z,2.70
2018-04-26T10:32:06.498Z,2.90
2018-04-26T10:33:06.494Z,2.00
2018-04-26T10:34:06.487Z,2.50
2018-04-26T10:35:06.479Z,2.70
2018-04-26T10:36:06.475Z,3.00
2018-04-26T10:37:06.465Z,2.70
2018-04-26T10:38:06.458Z,2.60
2018-04-26T10:39:06.449Z,2.30
2018-04-26T10:40:06.446Z,2.40
2018-04-26T10:41:06.435Z,2.20
2018-04-26T10:42:06.428Z,2.20
2018-04-26T10:43:06.420Z,2.30
2018-04-26T10:44:06.412Z,3.00
2018-04-26T10:45:06.407Z,2.40
2018-04-26T10:46:06.400Z,2.30
2018-04-26T10:47:06.395Z,2.70
2018-04-26T10:48:06.384Z,2.60
2018-04-26T10:49:06.376Z,2.50
2018-04-26T10:50:06.370Z,2.40
2018-04-26T10:51:06.364Z,2.30
2018-04-26T10:52:06.357Z,2.50
2018-04-26T10:53:06.395Z,2.30
2018-04-26T10:54:06.343Z,2.40
2018-04-26T10:55:06.335Z,2.50
2018-04-26T10:56:06.327Z,2.50
2018-04-26T10:57:06.321Z,2.40
2018-04-26T10:58:06.314Z,2.40
2018-04-26T10:59:06.308Z,2.00
2018-04-26T11:00:06.382Z,2.30
2018-04-26T11:01:06.296Z,2.50
2018-04-26T11:02:06.286Z,2.50
2018-04-26T11:03:06.281Z,2.30
2018-04-26T11:04:06.273Z,2.70
2018-04-26T11:05:06.267Z,2.90
2018-04-26T11:06:06.261Z,2.10
2018-04-26T11:07:06.253Z,2.50
2018-04-26T11:08:06.247Z,2.30
2018-04-26T11:09:06.264Z,2.60
2018-04-26T11:10:06.236Z,2.60
2018-04-26T11:11:06.231Z,2.50
2018-04-26T11:12:06.227Z,2.40
2018-04-26T11:13:06.216Z,3.10
2018-04-26T11:14:06.213Z,2.50
2018-04-26T11:15:06.211Z,2.70
2018-04-26T11:16:06.201Z,2.30
2018-04-26T11:17:06.218Z,2.10
2018-04-26T11:18:06.187Z,2.50
2018-04-26T11:19:06.184Z,2.40
2018-04-26T11:20:06.175Z,2.30
2018-04-26T11:21:06.171Z,2.60
2018-04-26T11:22:06.166Z,2.50
2018-04-26T11:23:06.159Z,2.70
2018-04-26T11:24:06.152Z,2.60
2018-04-26T11:25:06.145Z,2.20
2018-04-26T11:26:06.138Z,2.30
2018-04-26T11:27:06.134Z,2.40
2018-04-26T11:28:06.129Z,2.10
2018-04-26T11:29:06.121Z,2.30
2018-04-26T11:30:06.120Z,2.50
2018-04-26T11:31:06.199Z,2.00
2018-04-26T11:32:06.103Z,2.30
2018-04-26T11:33:06.101Z,2.50
2018-04-26T11:34:06.096Z,2.50
2018-04-26T11:35:06.087Z,2.10
2018-04-26T11:36:06.112Z,2.20
2018-04-26T11:37:06.077Z,2.10
2018-04-26T11:38:06.072Z,2.10
2018-04-26T11:39:06.064Z,2.60
2018-04-26T11:40:06.139Z,2.20
2018-04-26T11:41:06.052Z,1.80
2018-04-26T11:42:06.048Z,2.10
2018-04-26T11:43:06.040Z,2.10
2018-04-26T11:44:06.035Z,2.20
2018-04-26T11:45:06.027Z,2.20
2018-04-26T11:46:06.021Z,2.20
2018-04-26T11:47:06.016Z,1.90
2018-04-26T11:48:06.010Z,2.00
2018-04-26T11:49:06.011Z,2.30
2018-04-26T11:50:06.004Z,1.70
2018-04-26T11:51:05.996Z,2.10
2018-04-26T11:52:05.989Z,2.00
2018-04-26T11:53:05.984Z,2.00
2018-04-26T11:54:05.978Z,1.90
2018-04-26T11:55:05.976Z,2.10
2018-04-26T11:56:05.964Z,2.60
2018-04-26T11:57:05.960Z,2.20
2018-04-26T11:58:05.958Z,2.00
2018-04-26T11:59:05.949Z,2.30
2018-04-26T12:00:05.947Z,2.40
2018-04-26T12:01:05.946Z,2.10
2018-04-26T12:02:05.938Z,2.00
2018-04-26T12:03:05.932Z,2.00
2018-04-26T12:04:05.931Z,2.50
2018-04-26T12:05:05.924Z,2.10
2018-04-26T12:06:05.919Z,2.00
2018-04-26T12:07:05.913Z,2.00
2018-04-26T12:08:05.908Z,2.00
2018-04-26T12:09:05.905Z,2.10
2018-04-26T12:10:05.897Z,1.80
2018-04-26T12:11:05.897Z,1.90
2018-04-26T12:12:05.887Z,1.90
2018-04-26T12:13:05.898Z,1.90
2018-04-26T12:14:05.882Z,2.30
2018-04-26T12:15:05.875Z,2.00
2018-04-26T12:16:05.867Z,2.60
2018-04-26T12:17:05.861Z,2.10
2018-04-26T12:18:05.857Z,2.10
2018-04-26T12:19:05.855Z,2.40
2018-04-26T12:20:05.847Z,2.10
2018-04-26T12:21:05.839Z,2.00
2018-04-26T12:22:05.836Z,2.20
2018-04-26T12:23:05.832Z,2.20
2018-04-26T12:24:05.841Z,2.20
2018-04-26T12:25:05.819Z,2.10
2018-04-26T12:26:05.817Z,2.30
2018-04-26T12:27:05.807Z,2.00
2018-04-26T12:28:05.802Z,1.90
2018-04-26T12:29:05.798Z,2.20
2018-04-26T12:30:05.795Z,2.10
2018-04-26T12:31:05.790Z,1.90
2018-04-26T12:32:05.781Z,2.00
2018-04-26T12:33:05.776Z,1.90
2018-04-26T12:34:05.769Z,2.20
2018-04-26T12:35:05.802Z,2.40
2018-04-26T12:36:05.758Z,2.60
2018-04-26T12:37:05.752Z,2.00
2018-04-26T12:38:05.747Z,2.20
2018-04-26T12:39:05.743Z,2.30
2018-04-26T12:40:05.735Z,2.10
2018-04-26T12:41:05.729Z,2.00
2018-04-26T12:42:05.733Z,2.10
2018-04-26T12:43:05.719Z,2.30
2018-04-26T12:44:05.715Z,2.30
2018-04-26T12:45:05.707Z,2.00
2018-04-26T12:46:05.700Z,2.60
2018-04-26T12:47:05.698Z,2.30
2018-04-26T12:48:05.694Z,2.10
2018-04-26T12:49:05.688Z,2.10
2018-04-26T12:50:05.678Z,2.00
2018-04-26T12:51:05.674Z,2.10
2018-04-26T12:52:05.665Z,2.00
2018-04-26T12:53:05.667Z,1.90
2018-04-26T12:54:05.657Z,2.20
2018-04-26T12:55:05.651Z,1.70
2018-04-26T12:56:05.642Z,1.80
2018-04-26T12:57:05.638Z,2.00
2018-04-26T12:58:05.644Z,1.70
2018-04-26T12:59:05.626Z,2.10
2018-04-26T13:00:05.619Z,2.20
2018-04-26T13:01:05.620Z,1.70
2018-04-26T13:02:05.609Z,2.10
2018-04-26T13:03:05.605Z,1.70
2018-04-26T13:04:05.596Z,2.20
2018-04-26T13:05:05.667Z,2.00
2018-04-26T13:06:05.591Z,2.00
2018-04-26T13:07:05.579Z,2.10
2018-04-26T13:08:05.575Z,1.80
2018-04-26T13:09:05.568Z,2.00
2018-04-26T13:10:05.565Z,2.30
2018-04-26T13:11:05.557Z,2.10
2018-04-26T13:12:05.551Z,1.80
2018-04-26T13:13:05.547Z,1.70
2018-04-26T13:14:05.538Z,2.00
2018-04-26T13:15:05.537Z,1.80
2018-04-26T13:16:05.531Z,1.80
2018-04-26T13:17:05.547Z,2.10
2018-04-26T13:18:05.520Z,1.60